sensor_id;sensor_type;location;lat;lon;timestamp;P1;durP1;ratioP1;P2;durP2;ratioP2
15673;SDS011;7937;48.090;16.212;2024-02-21T00:00:55;9.47;;;3.03;;
15673;SDS011;7937;48.090;16.212;2024-02-21T00:03:58;9.00;;;2.40;;
15673;SDS011;7937;48.090;16.212;2024-02-21T00:07:00;10.60;;;2.60;;
15673;SDS011;7937;48.090;16.212;2024-02-21T00:10:02;7.10;;;2.30;;
15673;SDS011;7937;48.090;16.212;2024-02-21T00:13:05;7.93;;;2.87;;
15673;SDS011;7937;48.090;16.212;2024-02-21T00:16:07;9.67;;;2.50;;
15673;SDS011;7937;48.090;16.212;2024-02-21T00:19:09;5.97;;;2.37;;
15673;SDS011;7937;48.090;16.212;2024-02-21T00:22:12;6.27;;;2.10;;
15673;SDS011;7937;48.090;16.212;2024-02-21T00:25:14;5.00;;;2.50;;
15673;SDS011;7937;48.090;16.212;2024-02-21T00:28:16;9.30;;;2.40;;
15673;SDS011;7937;48.090;16.212;2024-02-21T00:31:19;5.80;;;2.30;;
15673;SDS011;7937;48.090;16.212;2024-02-21T00:34:21;4.33;;;2.13;;
15673;SDS011;7937;48.090;16.212;2024-02-21T00:37:23;7.73;;;2.40;;
15673;SDS011;7937;48.090;16.212;2024-02-21T00:40:25;4.53;;;2.30;;
15673;SDS011;7937;48.090;16.212;2024-02-21T00:43:27;6.70;;;2.57;;
15673;SDS011;7937;48.090;16.212;2024-02-21T00:46:30;5.40;;;2.40;;
15673;SDS011;7937;48.090;16.212;2024-02-21T00:49:32;7.97;;;2.60;;
15673;SDS011;7937;48.090;16.212;2024-02-21T00:52:34;5.90;;;2.13;;
15673;SDS011;7937;48.090;16.212;2024-02-21T00:55:36;5.57;;;2.10;;
15673;SDS011;7937;48.090;16.212;2024-02-21T00:58:38;8.83;;;2.50;;
15673;SDS011;7937;48.090;16.212;2024-02-21T01:01:41;6.87;;;2.40;;
15673;SDS011;7937;48.090;16.212;2024-02-21T01:04:44;9.13;;;2.83;;
15673;SDS011;7937;48.090;16.212;2024-02-21T01:07:46;7.17;;;2.43;;
15673;SDS011;7937;48.090;16.212;2024-02-21T01:10:49;6.47;;;2.20;;
15673;SDS011;7937;48.090;16.212;2024-02-21T01:13:51;6.90;;;2.20;;
15673;SDS011;7937;48.090;16.212;2024-02-21T01:16:54;8.20;;;2.77;;
15673;SDS011;7937;48.090;16.212;2024-02-21T01:19:56;6.70;;;2.63;;
15673;SDS011;7937;48.090;16.212;2024-02-21T01:22:58;7.37;;;2.20;;
15673;SDS011;7937;48.090;16.212;2024-02-21T01:26:01;6.43;;;2.37;;
15673;SDS011;7937;48.090;16.212;2024-02-21T01:29:03;5.53;;;2.20;;
15673;SDS011;7937;48.090;16.212;2024-02-21T01:32:05;7.03;;;2.70;;
15673;SDS011;7937;48.090;16.212;2024-02-21T01:35:07;6.97;;;2.47;;
15673;SDS011;7937;48.090;16.212;2024-02-21T01:38:12;7.17;;;2.27;;
15673;SDS011;7937;48.090;16.212;2024-02-21T01:41:14;9.77;;;2.63;;
15673;SDS011;7937;48.090;16.212;2024-02-21T01:44:18;9.27;;;2.67;;
15673;SDS011;7937;48.090;16.212;2024-02-21T01:47:20;7.53;;;2.77;;
15673;SDS011;7937;48.090;16.212;2024-02-21T01:50:22;8.87;;;2.40;;
15673;SDS011;7937;48.090;16.212;2024-02-21T01:53:27;8.73;;;2.67;;
15673;SDS011;7937;48.090;16.212;2024-02-21T01:56:32;7.27;;;2.67;;
15673;SDS011;7937;48.090;16.212;2024-02-21T01:59:34;6.33;;;2.50;;
15673;SDS011;7937;48.090;16.212;2024-02-21T02:02:37;5.73;;;2.87;;
15673;SDS011;7937;48.090;16.212;2024-02-21T02:05:40;10.97;;;2.10;;
15673;SDS011;7937;48.090;16.212;2024-02-21T02:08:42;9.73;;;2.20;;
15673;SDS011;7937;48.090;16.212;2024-02-21T02:11:44;4.17;;;2.10;;
15673;SDS011;7937;48.090;16.212;2024-02-21T02:14:56;7.17;;;2.53;;
15673;SDS011;7937;48.090;16.212;2024-02-21T02:17:59;6.67;;;1.90;;
15673;SDS011;7937;48.090;16.212;2024-02-21T02:21:03;9.80;;;2.33;;
15673;SDS011;7937;48.090;16.212;2024-02-21T02:24:13;6.90;;;1.90;;
15673;SDS011;7937;48.090;16.212;2024-02-21T02:27:15;5.07;;;1.90;;
15673;SDS011;7937;48.090;16.212;2024-02-21T02:30:18;10.10;;;2.50;;
15673;SDS011;7937;48.090;16.212;2024-02-21T02:33:20;8.03;;;2.10;;
15673;SDS011;7937;48.090;16.212;2024-02-21T02:36:22;6.03;;;2.10;;
15673;SDS011;7937;48.090;16.212;2024-02-21T02:39:25;5.33;;;1.87;;
15673;SDS011;7937;48.090;16.212;2024-02-21T02:42:27;5.60;;;2.27;;
15673;SDS011;7937;48.090;16.212;2024-02-21T02:45:29;7.93;;;2.00;;
15673;SDS011;7937;48.090;16.212;2024-02-21T02:48:31;8.57;;;2.13;;
15673;SDS011;7937;48.090;16.212;2024-02-21T02:51:33;8.10;;;2.17;;
15673;SDS011;7937;48.090;16.212;2024-02-21T02:54:35;8.43;;;2.30;;
15673;SDS011;7937;48.090;16.212;2024-02-21T02:57:37;4.77;;;1.93;;
15673;SDS011;7937;48.090;16.212;2024-02-21T03:00:40;6.87;;;2.33;;
15673;SDS011;7937;48.090;16.212;2024-02-21T03:03:42;7.40;;;2.53;;
15673;SDS011;7937;48.090;16.212;2024-02-21T03:06:44;7.40;;;2.33;;
15673;SDS011;7937;48.090;16.212;2024-02-21T03:09:46;6.30;;;2.00;;
15673;SDS011;7937;48.090;16.212;2024-02-21T03:12:48;5.57;;;2.33;;
15673;SDS011;7937;48.090;16.212;2024-02-21T03:15:50;9.93;;;2.73;;
15673;SDS011;7937;48.090;16.212;2024-02-21T03:18:53;2.37;;;1.70;;
15673;SDS011;7937;48.090;16.212;2024-02-21T03:21:55;7.40;;;2.53;;
15673;SDS011;7937;48.090;16.212;2024-02-21T03:24:57;6.17;;;1.97;;
15673;SDS011;7937;48.090;16.212;2024-02-21T03:27:59;4.80;;;2.27;;
15673;SDS011;7937;48.090;16.212;2024-02-21T03:31:01;5.13;;;1.87;;
15673;SDS011;7937;48.090;16.212;2024-02-21T03:34:04;4.77;;;1.77;;
15673;SDS011;7937;48.090;16.212;2024-02-21T03:37:06;5.20;;;2.00;;
15673;SDS011;7937;48.090;16.212;2024-02-21T03:40:08;6.60;;;2.10;;
15673;SDS011;7937;48.090;16.212;2024-02-21T03:43:11;5.03;;;1.90;;
15673;SDS011;7937;48.090;16.212;2024-02-21T03:46:14;6.57;;;2.23;;
15673;SDS011;7937;48.090;16.212;2024-02-21T03:49:17;6.37;;;1.50;;
15673;SDS011;7937;48.090;16.212;2024-02-21T03:52:20;5.80;;;2.33;;
15673;SDS011;7937;48.090;16.212;2024-02-21T03:55:22;6.80;;;2.20;;
15673;SDS011;7937;48.090;16.212;2024-02-21T03:58:24;6.50;;;1.90;;
15673;SDS011;7937;48.090;16.212;2024-02-21T04:01:26;6.37;;;2.17;;
15673;SDS011;7937;48.090;16.212;2024-02-21T04:04:28;7.70;;;2.17;;
15673;SDS011;7937;48.090;16.212;2024-02-21T04:07:31;8.43;;;2.67;;
15673;SDS011;7937;48.090;16.212;2024-02-21T04:10:33;5.20;;;2.73;;
15673;SDS011;7937;48.090;16.212;2024-02-21T04:13:35;6.43;;;2.10;;
15673;SDS011;7937;48.090;16.212;2024-02-21T04:16:37;8.33;;;2.30;;
15673;SDS011;7937;48.090;16.212;2024-02-21T04:19:41;5.83;;;2.07;;
15673;SDS011;7937;48.090;16.212;2024-02-21T04:22:43;4.47;;;2.00;;
15673;SDS011;7937;48.090;16.212;2024-02-21T04:25:46;6.33;;;2.07;;
15673;SDS011;7937;48.090;16.212;2024-02-21T04:28:48;6.37;;;1.80;;
15673;SDS011;7937;48.090;16.212;2024-02-21T04:31:51;8.70;;;1.87;;
15673;SDS011;7937;48.090;16.212;2024-02-21T04:34:53;4.37;;;2.33;;
15673;SDS011;7937;48.090;16.212;2024-02-21T04:37:55;3.30;;;1.80;;
15673;SDS011;7937;48.090;16.212;2024-02-21T04:40:58;5.97;;;1.73;;
15673;SDS011;7937;48.090;16.212;2024-02-21T04:44:00;6.30;;;1.93;;
15673;SDS011;7937;48.090;16.212;2024-02-21T04:47:03;7.90;;;2.00;;
15673;SDS011;7937;48.090;16.212;2024-02-21T04:50:06;10.50;;;2.43;;
15673;SDS011;7937;48.090;16.212;2024-02-21T04:53:08;5.67;;;1.80;;
15673;SDS011;7937;48.090;16.212;2024-02-21T04:56:10;5.23;;;2.07;;
15673;SDS011;7937;48.090;16.212;2024-02-21T04:59:12;3.43;;;1.53;;
15673;SDS011;7937;48.090;16.212;2024-02-21T05:02:15;7.30;;;1.67;;
15673;SDS011;7937;48.090;16.212;2024-02-21T05:05:17;7.93;;;2.37;;
15673;SDS011;7937;48.090;16.212;2024-02-21T05:08:19;4.90;;;2.00;;
15673;SDS011;7937;48.090;16.212;2024-02-21T05:11:21;4.70;;;1.60;;
15673;SDS011;7937;48.090;16.212;2024-02-21T05:14:24;4.67;;;2.00;;
15673;SDS011;7937;48.090;16.212;2024-02-21T05:17:28;5.97;;;1.77;;
15673;SDS011;7937;48.090;16.212;2024-02-21T05:20:31;5.27;;;1.73;;
15673;SDS011;7937;48.090;16.212;2024-02-21T05:23:33;3.10;;;1.80;;
15673;SDS011;7937;48.090;16.212;2024-02-21T05:26:35;3.23;;;1.40;;
15673;SDS011;7937;48.090;16.212;2024-02-21T05:29:37;4.97;;;1.50;;
15673;SDS011;7937;48.090;16.212;2024-02-21T05:32:39;5.83;;;1.90;;
15673;SDS011;7937;48.090;16.212;2024-02-21T05:35:42;6.10;;;1.70;;
15673;SDS011;7937;48.090;16.212;2024-02-21T05:38:44;5.33;;;1.57;;
15673;SDS011;7937;48.090;16.212;2024-02-21T05:41:46;5.13;;;1.90;;
15673;SDS011;7937;48.090;16.212;2024-02-21T05:44:48;6.83;;;1.40;;
15673;SDS011;7937;48.090;16.212;2024-02-21T05:47:50;4.67;;;1.60;;
15673;SDS011;7937;48.090;16.212;2024-02-21T05:50:52;5.37;;;1.47;;
15673;SDS011;7937;48.090;16.212;2024-02-21T05:53:54;2.47;;;1.57;;
15673;SDS011;7937;48.090;16.212;2024-02-21T05:56:56;4.00;;;1.53;;
15673;SDS011;7937;48.090;16.212;2024-02-21T05:59:59;4.10;;;1.40;;
15673;SDS011;7937;48.090;16.212;2024-02-21T06:03:01;3.83;;;1.40;;
15673;SDS011;7937;48.090;16.212;2024-02-21T06:06:04;4.10;;;1.40;;
15673;SDS011;7937;48.090;16.212;2024-02-21T06:09:09;3.07;;;1.40;;
15673;SDS011;7937;48.090;16.212;2024-02-21T06:12:11;5.13;;;1.40;;
15673;SDS011;7937;48.090;16.212;2024-02-21T06:15:13;7.67;;;1.53;;
15673;SDS011;7937;48.090;16.212;2024-02-21T06:18:17;4.93;;;1.80;;
15673;SDS011;7937;48.090;16.212;2024-02-21T06:21:20;4.67;;;1.70;;
15673;SDS011;7937;48.090;16.212;2024-02-21T06:24:22;5.63;;;1.50;;
15673;SDS011;7937;48.090;16.212;2024-02-21T06:27:24;6.80;;;1.60;;
15673;SDS011;7937;48.090;16.212;2024-02-21T06:30:26;7.67;;;1.90;;
15673;SDS011;7937;48.090;16.212;2024-02-21T06:33:28;6.27;;;1.37;;
15673;SDS011;7937;48.090;16.212;2024-02-21T06:36:31;7.03;;;2.00;;
15673;SDS011;7937;48.090;16.212;2024-02-21T06:39:33;3.77;;;1.30;;
15673;SDS011;7937;48.090;16.212;2024-02-21T06:42:38;4.47;;;1.60;;
15673;SDS011;7937;48.090;16.212;2024-02-21T06:45:40;4.83;;;1.43;;
15673;SDS011;7937;48.090;16.212;2024-02-21T06:48:42;4.13;;;1.50;;
15673;SDS011;7937;48.090;16.212;2024-02-21T06:51:48;4.77;;;1.40;;
15673;SDS011;7937;48.090;16.212;2024-02-21T06:54:50;3.43;;;1.40;;
15673;SDS011;7937;48.090;16.212;2024-02-21T06:57:52;5.10;;;1.30;;
15673;SDS011;7937;48.090;16.212;2024-02-21T07:00:55;3.87;;;1.50;;
15673;SDS011;7937;48.090;16.212;2024-02-21T07:03:57;5.40;;;1.90;;
15673;SDS011;7937;48.090;16.212;2024-02-21T07:06:59;6.67;;;1.87;;
15673;SDS011;7937;48.090;16.212;2024-02-21T07:10:01;3.43;;;1.60;;
15673;SDS011;7937;48.090;16.212;2024-02-21T07:13:03;4.40;;;1.60;;
15673;SDS011;7937;48.090;16.212;2024-02-21T07:16:06;3.27;;;1.20;;
15673;SDS011;7937;48.090;16.212;2024-02-21T07:19:09;2.40;;;1.10;;
15673;SDS011;7937;48.090;16.212;2024-02-21T07:22:11;3.03;;;1.30;;
15673;SDS011;7937;48.090;16.212;2024-02-21T07:25:13;5.10;;;1.10;;
15673;SDS011;7937;48.090;16.212;2024-02-21T07:28:15;4.57;;;1.20;;
15673;SDS011;7937;48.090;16.212;2024-02-21T07:31:18;6.50;;;1.40;;
15673;SDS011;7937;48.090;16.212;2024-02-21T07:34:20;2.70;;;1.30;;
15673;SDS011;7937;48.090;16.212;2024-02-21T07:37:23;4.17;;;1.17;;
15673;SDS011;7937;48.090;16.212;2024-02-21T07:40:25;7.87;;;2.07;;
15673;SDS011;7937;48.090;16.212;2024-02-21T07:43:27;6.03;;;1.40;;
15673;SDS011;7937;48.090;16.212;2024-02-21T07:46:30;2.50;;;1.43;;
15673;SDS011;7937;48.090;16.212;2024-02-21T07:49:32;3.57;;;1.53;;
15673;SDS011;7937;48.090;16.212;2024-02-21T07:52:34;3.60;;;1.30;;
15673;SDS011;7937;48.090;16.212;2024-02-21T07:55:37;5.57;;;1.33;;
15673;SDS011;7937;48.090;16.212;2024-02-21T07:58:39;5.07;;;1.17;;
15673;SDS011;7937;48.090;16.212;2024-02-21T08:01:42;3.23;;;1.13;;
15673;SDS011;7937;48.090;16.212;2024-02-21T08:04:46;3.83;;;1.60;;
15673;SDS011;7937;48.090;16.212;2024-02-21T08:07:48;7.97;;;1.90;;
15673;SDS011;7937;48.090;16.212;2024-02-21T08:10:51;4.97;;;1.53;;
15673;SDS011;7937;48.090;16.212;2024-02-21T08:13:53;2.77;;;1.27;;
15673;SDS011;7937;48.090;16.212;2024-02-21T08:16:56;3.53;;;1.10;;
15673;SDS011;7937;48.090;16.212;2024-02-21T08:19:58;5.27;;;1.70;;
15673;SDS011;7937;48.090;16.212;2024-02-21T08:23:00;7.00;;;1.67;;
15673;SDS011;7937;48.090;16.212;2024-02-21T08:26:03;5.07;;;1.50;;
15673;SDS011;7937;48.090;16.212;2024-02-21T08:29:05;2.87;;;1.20;;
15673;SDS011;7937;48.090;16.212;2024-02-21T08:32:08;4.87;;;1.73;;
15673;SDS011;7937;48.090;16.212;2024-02-21T08:35:10;2.70;;;1.13;;
15673;SDS011;7937;48.090;16.212;2024-02-21T08:38:14;4.60;;;1.53;;
15673;SDS011;7937;48.090;16.212;2024-02-21T08:41:16;3.70;;;1.13;;
15673;SDS011;7937;48.090;16.212;2024-02-21T08:44:18;2.70;;;1.03;;
15673;SDS011;7937;48.090;16.212;2024-02-21T08:47:21;5.87;;;1.40;;
15673;SDS011;7937;48.090;16.212;2024-02-21T08:50:23;5.70;;;1.50;;
15673;SDS011;7937;48.090;16.212;2024-02-21T08:53:30;4.00;;;1.40;;
15673;SDS011;7937;48.090;16.212;2024-02-21T08:56:32;3.90;;;1.20;;
15673;SDS011;7937;48.090;16.212;2024-02-21T08:59:35;4.47;;;1.40;;
15673;SDS011;7937;48.090;16.212;2024-02-21T09:02:39;4.90;;;1.53;;
15673;SDS011;7937;48.090;16.212;2024-02-21T09:05:42;3.23;;;1.20;;
15673;SDS011;7937;48.090;16.212;2024-02-21T09:08:45;5.03;;;1.60;;
15673;SDS011;7937;48.090;16.212;2024-02-21T09:11:47;4.13;;;1.43;;
15673;SDS011;7937;48.090;16.212;2024-02-21T09:14:49;4.30;;;1.43;;
15673;SDS011;7937;48.090;16.212;2024-02-21T09:17:52;6.77;;;1.93;;
15673;SDS011;7937;48.090;16.212;2024-02-21T09:20:54;4.10;;;1.50;;
15673;SDS011;7937;48.090;16.212;2024-02-21T09:23:57;4.40;;;1.40;;
15673;SDS011;7937;48.090;16.212;2024-02-21T09:27:01;6.73;;;1.60;;
15673;SDS011;7937;48.090;16.212;2024-02-21T09:30:03;3.30;;;1.43;;
15673;SDS011;7937;48.090;16.212;2024-02-21T09:33:07;5.23;;;1.77;;
15673;SDS011;7937;48.090;16.212;2024-02-21T09:36:09;4.33;;;1.23;;
15673;SDS011;7937;48.090;16.212;2024-02-21T09:39:11;6.57;;;1.50;;
15673;SDS011;7937;48.090;16.212;2024-02-21T09:42:16;3.00;;;1.27;;
15673;SDS011;7937;48.090;16.212;2024-02-21T09:45:23;5.13;;;1.40;;
15673;SDS011;7937;48.090;16.212;2024-02-21T09:48:51;7.63;;;1.77;;
15673;SDS011;7937;48.090;16.212;2024-02-21T09:52:07;5.50;;;1.40;;
15673;SDS011;7937;48.090;16.212;2024-02-21T09:55:11;2.20;;;1.20;;
15673;SDS011;7937;48.090;16.212;2024-02-21T09:58:16;5.83;;;1.80;;
15673;SDS011;7937;48.090;16.212;2024-02-21T10:01:18;5.23;;;1.70;;
15673;SDS011;7937;48.090;16.212;2024-02-21T10:04:34;7.83;;;1.77;;
15673;SDS011;7937;48.090;16.212;2024-02-21T10:07:38;7.03;;;1.70;;
15673;SDS011;7937;48.090;16.212;2024-02-21T10:10:44;10.73;;;1.87;;
15673;SDS011;7937;48.090;16.212;2024-02-21T10:13:48;5.60;;;1.33;;
15673;SDS011;7937;48.090;16.212;2024-02-21T10:16:57;6.03;;;1.80;;
15673;SDS011;7937;48.090;16.212;2024-02-21T10:20:11;4.97;;;1.60;;
15673;SDS011;7937;48.090;16.212;2024-02-21T10:23:14;4.10;;;1.33;;
15673;SDS011;7937;48.090;16.212;2024-02-21T10:26:17;4.63;;;1.40;;
15673;SDS011;7937;48.090;16.212;2024-02-21T10:29:20;5.07;;;1.23;;
15673;SDS011;7937;48.090;16.212;2024-02-21T10:32:22;3.93;;;1.60;;
15673;SDS011;7937;48.090;16.212;2024-02-21T10:35:28;2.10;;;0.80;;
15673;SDS011;7937;48.090;16.212;2024-02-21T10:38:32;5.33;;;1.67;;
15673;SDS011;7937;48.090;16.212;2024-02-21T10:41:35;3.93;;;1.83;;
15673;SDS011;7937;48.090;16.212;2024-02-21T10:44:40;4.73;;;1.50;;
15673;SDS011;7937;48.090;16.212;2024-02-21T10:47:47;4.10;;;1.37;;
15673;SDS011;7937;48.090;16.212;2024-02-21T10:51:02;5.97;;;1.50;;
15673;SDS011;7937;48.090;16.212;2024-02-21T10:54:16;5.00;;;1.87;;
15673;SDS011;7937;48.090;16.212;2024-02-21T10:57:37;4.67;;;1.40;;
15673;SDS011;7937;48.090;16.212;2024-02-21T11:00:39;4.93;;;1.60;;
15673;SDS011;7937;48.090;16.212;2024-02-21T11:03:43;5.70;;;1.60;;
15673;SDS011;7937;48.090;16.212;2024-02-21T11:06:47;2.00;;;1.30;;
15673;SDS011;7937;48.090;16.212;2024-02-21T11:09:51;8.37;;;1.53;;
15673;SDS011;7937;48.090;16.212;2024-02-21T11:16:10;5.10;;;1.47;;
15673;SDS011;7937;48.090;16.212;2024-02-21T11:19:20;3.20;;;1.13;;
15673;SDS011;7937;48.090;16.212;2024-02-21T11:22:23;6.03;;;1.30;;
15673;SDS011;7937;48.090;16.212;2024-02-21T11:25:31;5.50;;;1.60;;
15673;SDS011;7937;48.090;16.212;2024-02-21T11:28:35;4.00;;;1.23;;
15673;SDS011;7937;48.090;16.212;2024-02-21T11:31:39;2.43;;;1.10;;
15673;SDS011;7937;48.090;16.212;2024-02-21T11:34:58;5.33;;;1.60;;
15673;SDS011;7937;48.090;16.212;2024-02-21T11:41:19;2.97;;;1.23;;
15673;SDS011;7937;48.090;16.212;2024-02-21T11:44:22;3.60;;;1.23;;
15673;SDS011;7937;48.090;16.212;2024-02-21T11:47:24;4.40;;;1.30;;
15673;SDS011;7937;48.090;16.212;2024-02-21T11:50:27;4.93;;;1.37;;
15673;SDS011;7937;48.090;16.212;2024-02-21T11:53:29;3.37;;;1.13;;
15673;SDS011;7937;48.090;16.212;2024-02-21T11:56:36;2.70;;;1.23;;
15673;SDS011;7937;48.090;16.212;2024-02-21T11:59:39;3.67;;;1.20;;
15673;SDS011;7937;48.090;16.212;2024-02-21T12:02:45;4.40;;;1.53;;
15673;SDS011;7937;48.090;16.212;2024-02-21T12:05:47;2.70;;;1.50;;
15673;SDS011;7937;48.090;16.212;2024-02-21T12:08:50;6.03;;;1.80;;
15673;SDS011;7937;48.090;16.212;2024-02-21T12:12:02;5.97;;;1.73;;
15673;SDS011;7937;48.090;16.212;2024-02-21T12:15:09;1.67;;;1.27;;
15673;SDS011;7937;48.090;16.212;2024-02-21T12:18:11;3.67;;;1.43;;
15673;SDS011;7937;48.090;16.212;2024-02-21T12:21:13;4.13;;;1.20;;
15673;SDS011;7937;48.090;16.212;2024-02-21T12:24:26;4.47;;;1.20;;
15673;SDS011;7937;48.090;16.212;2024-02-21T12:27:29;3.97;;;1.27;;
15673;SDS011;7937;48.090;16.212;2024-02-21T12:30:32;3.03;;;1.00;;
15673;SDS011;7937;48.090;16.212;2024-02-21T12:33:36;4.13;;;1.30;;
15673;SDS011;7937;48.090;16.212;2024-02-21T12:36:45;2.73;;;0.90;;
15673;SDS011;7937;48.090;16.212;2024-02-21T12:39:50;3.40;;;1.10;;
15673;SDS011;7937;48.090;16.212;2024-02-21T12:42:53;3.57;;;1.27;;
15673;SDS011;7937;48.090;16.212;2024-02-21T12:45:55;3.03;;;1.37;;
15673;SDS011;7937;48.090;16.212;2024-02-21T12:48:57;3.20;;;1.63;;
15673;SDS011;7937;48.090;16.212;2024-02-21T12:51:59;2.30;;;1.30;;
15673;SDS011;7937;48.090;16.212;2024-02-21T12:55:02;4.83;;;1.47;;
15673;SDS011;7937;48.090;16.212;2024-02-21T12:58:04;3.77;;;1.20;;
15673;SDS011;7937;48.090;16.212;2024-02-21T13:01:08;4.43;;;1.60;;
15673;SDS011;7937;48.090;16.212;2024-02-21T13:04:11;4.20;;;1.37;;
15673;SDS011;7937;48.090;16.212;2024-02-21T13:07:13;5.93;;;1.47;;
15673;SDS011;7937;48.090;16.212;2024-02-21T13:10:15;3.57;;;1.20;;
15673;SDS011;7937;48.090;16.212;2024-02-21T13:13:18;4.70;;;1.40;;
15673;SDS011;7937;48.090;16.212;2024-02-21T13:16:20;3.27;;;1.40;;
15673;SDS011;7937;48.090;16.212;2024-02-21T13:19:22;2.43;;;1.07;;
15673;SDS011;7937;48.090;16.212;2024-02-21T13:22:24;5.97;;;1.60;;
15673;SDS011;7937;48.090;16.212;2024-02-21T13:25:29;6.00;;;1.83;;
15673;SDS011;7937;48.090;16.212;2024-02-21T13:28:32;3.40;;;1.40;;
15673;SDS011;7937;48.090;16.212;2024-02-21T13:31:34;2.73;;;1.33;;
15673;SDS011;7937;48.090;16.212;2024-02-21T13:34:36;2.80;;;1.10;;
15673;SDS011;7937;48.090;16.212;2024-02-21T13:37:39;4.53;;;1.30;;
15673;SDS011;7937;48.090;16.212;2024-02-21T13:40:42;2.20;;;1.00;;
15673;SDS011;7937;48.090;16.212;2024-02-21T13:43:44;2.73;;;1.33;;
15673;SDS011;7937;48.090;16.212;2024-02-21T13:46:48;2.60;;;1.00;;
15673;SDS011;7937;48.090;16.212;2024-02-21T13:49:50;4.10;;;1.27;;
15673;SDS011;7937;48.090;16.212;2024-02-21T13:52:52;7.10;;;1.70;;
15673;SDS011;7937;48.090;16.212;2024-02-21T13:55:55;3.50;;;1.20;;
15673;SDS011;7937;48.090;16.212;2024-02-21T13:59:00;3.03;;;0.90;;
15673;SDS011;7937;48.090;16.212;2024-02-21T14:02:02;3.43;;;1.50;;
15673;SDS011;7937;48.090;16.212;2024-02-21T14:05:05;3.13;;;1.37;;
15673;SDS011;7937;48.090;16.212;2024-02-21T14:08:08;2.97;;;1.20;;
15673;SDS011;7937;48.090;16.212;2024-02-21T14:11:10;2.43;;;1.07;;
15673;SDS011;7937;48.090;16.212;2024-02-21T14:14:12;2.90;;;1.30;;
15673;SDS011;7937;48.090;16.212;2024-02-21T14:17:17;1.77;;;1.00;;
15673;SDS011;7937;48.090;16.212;2024-02-21T14:20:20;1.73;;;0.90;;
15673;SDS011;7937;48.090;16.212;2024-02-21T14:23:22;3.40;;;1.27;;
15673;SDS011;7937;48.090;16.212;2024-02-21T14:26:24;5.20;;;1.13;;
15673;SDS011;7937;48.090;16.212;2024-02-21T14:29:26;3.63;;;1.27;;
15673;SDS011;7937;48.090;16.212;2024-02-21T14:32:29;3.10;;;1.20;;
15673;SDS011;7937;48.090;16.212;2024-02-21T14:35:31;4.20;;;1.37;;
15673;SDS011;7937;48.090;16.212;2024-02-21T14:38:33;2.40;;;0.93;;
15673;SDS011;7937;48.090;16.212;2024-02-21T14:41:37;3.57;;;1.17;;
15673;SDS011;7937;48.090;16.212;2024-02-21T14:44:41;3.37;;;1.00;;
15673;SDS011;7937;48.090;16.212;2024-02-21T14:47:43;2.67;;;0.90;;
15673;SDS011;7937;48.090;16.212;2024-02-21T14:50:45;2.37;;;1.17;;
15673;SDS011;7937;48.090;16.212;2024-02-21T14:53:47;2.73;;;0.97;;
15673;SDS011;7937;48.090;16.212;2024-02-21T14:56:50;2.70;;;1.03;;
15673;SDS011;7937;48.090;16.212;2024-02-21T14:59:52;1.80;;;1.00;;
15673;SDS011;7937;48.090;16.212;2024-02-21T15:03:01;2.90;;;0.90;;
15673;SDS011;7937;48.090;16.212;2024-02-21T15:06:04;3.67;;;1.70;;
15673;SDS011;7937;48.090;16.212;2024-02-21T15:09:06;3.63;;;1.27;;
15673;SDS011;7937;48.090;16.212;2024-02-21T15:12:09;3.07;;;1.20;;
15673;SDS011;7937;48.090;16.212;2024-02-21T15:15:12;4.57;;;1.40;;
15673;SDS011;7937;48.090;16.212;2024-02-21T15:18:15;4.17;;;1.20;;
15673;SDS011;7937;48.090;16.212;2024-02-21T15:21:17;3.50;;;1.30;;
15673;SDS011;7937;48.090;16.212;2024-02-21T15:24:20;2.53;;;1.20;;
15673;SDS011;7937;48.090;16.212;2024-02-21T15:27:22;3.53;;;1.20;;
15673;SDS011;7937;48.090;16.212;2024-02-21T15:30:26;2.27;;;1.23;;
15673;SDS011;7937;48.090;16.212;2024-02-21T15:33:28;4.77;;;1.30;;
15673;SDS011;7937;48.090;16.212;2024-02-21T15:36:30;3.00;;;1.03;;
15673;SDS011;7937;48.090;16.212;2024-02-21T15:39:33;4.00;;;1.27;;
15673;SDS011;7937;48.090;16.212;2024-02-21T15:42:35;3.67;;;1.53;;
15673;SDS011;7937;48.090;16.212;2024-02-21T15:45:38;3.80;;;1.40;;
15673;SDS011;7937;48.090;16.212;2024-02-21T15:48:41;4.10;;;1.07;;
15673;SDS011;7937;48.090;16.212;2024-02-21T15:51:43;4.20;;;1.20;;
15673;SDS011;7937;48.090;16.212;2024-02-21T15:54:45;2.27;;;1.20;;
15673;SDS011;7937;48.090;16.212;2024-02-21T15:57:47;2.67;;;1.43;;
15673;SDS011;7937;48.090;16.212;2024-02-21T16:00:51;5.27;;;1.47;;
15673;SDS011;7937;48.090;16.212;2024-02-21T16:03:53;4.77;;;1.73;;
15673;SDS011;7937;48.090;16.212;2024-02-21T16:07:00;6.47;;;1.37;;
15673;SDS011;7937;48.090;16.212;2024-02-21T16:10:02;3.67;;;1.40;;
15673;SDS011;7937;48.090;16.212;2024-02-21T16:13:05;3.37;;;1.40;;
15673;SDS011;7937;48.090;16.212;2024-02-21T16:16:09;4.97;;;1.47;;
15673;SDS011;7937;48.090;16.212;2024-02-21T16:19:12;4.13;;;1.80;;
15673;SDS011;7937;48.090;16.212;2024-02-21T16:22:15;6.40;;;1.67;;
15673;SDS011;7937;48.090;16.212;2024-02-21T16:25:17;5.00;;;1.40;;
15673;SDS011;7937;48.090;16.212;2024-02-21T16:28:20;6.30;;;1.60;;
15673;SDS011;7937;48.090;16.212;2024-02-21T16:31:22;7.03;;;1.50;;
15673;SDS011;7937;48.090;16.212;2024-02-21T16:34:25;4.33;;;1.37;;
15673;SDS011;7937;48.090;16.212;2024-02-21T16:37:27;3.70;;;1.40;;
15673;SDS011;7937;48.090;16.212;2024-02-21T16:40:29;4.83;;;1.50;;
15673;SDS011;7937;48.090;16.212;2024-02-21T16:43:32;4.17;;;1.40;;
15673;SDS011;7937;48.090;16.212;2024-02-21T16:46:34;3.77;;;1.47;;
15673;SDS011;7937;48.090;16.212;2024-02-21T16:49:36;3.47;;;1.30;;
15673;SDS011;7937;48.090;16.212;2024-02-21T16:52:39;5.57;;;1.43;;
15673;SDS011;7937;48.090;16.212;2024-02-21T16:55:41;6.77;;;2.13;;
15673;SDS011;7937;48.090;16.212;2024-02-21T16:58:44;4.20;;;1.70;;
15673;SDS011;7937;48.090;16.212;2024-02-21T17:01:46;7.97;;;1.90;;
15673;SDS011;7937;48.090;16.212;2024-02-21T17:04:50;10.70;;;1.77;;
15673;SDS011;7937;48.090;16.212;2024-02-21T17:07:55;4.37;;;1.47;;
15673;SDS011;7937;48.090;16.212;2024-02-21T17:10:57;4.67;;;1.60;;
15673;SDS011;7937;48.090;16.212;2024-02-21T17:14:01;2.87;;;1.57;;
15673;SDS011;7937;48.090;16.212;2024-02-21T17:17:03;4.43;;;1.30;;
15673;SDS011;7937;48.090;16.212;2024-02-21T17:20:06;4.97;;;1.20;;
15673;SDS011;7937;48.090;16.212;2024-02-21T17:23:13;8.80;;;1.57;;
15673;SDS011;7937;48.090;16.212;2024-02-21T17:26:16;4.17;;;1.40;;
15673;SDS011;7937;48.090;16.212;2024-02-21T17:29:19;3.90;;;1.37;;
15673;SDS011;7937;48.090;16.212;2024-02-21T17:32:22;4.10;;;1.40;;
15673;SDS011;7937;48.090;16.212;2024-02-21T17:35:24;3.53;;;1.20;;
15673;SDS011;7937;48.090;16.212;2024-02-21T17:38:26;5.50;;;1.30;;
15673;SDS011;7937;48.090;16.212;2024-02-21T17:41:31;4.37;;;1.90;;
15673;SDS011;7937;48.090;16.212;2024-02-21T17:44:33;4.40;;;1.57;;
15673;SDS011;7937;48.090;16.212;2024-02-21T17:47:40;6.63;;;1.20;;
15673;SDS011;7937;48.090;16.212;2024-02-21T17:50:42;3.17;;;1.40;;
15673;SDS011;7937;48.090;16.212;2024-02-21T17:53:44;9.40;;;2.30;;
15673;SDS011;7937;48.090;16.212;2024-02-21T17:56:46;5.03;;;2.20;;
15673;SDS011;7937;48.090;16.212;2024-02-21T17:59:49;3.70;;;2.10;;
15673;SDS011;7937;48.090;16.212;2024-02-21T18:02:51;4.17;;;1.80;;
15673;SDS011;7937;48.090;16.212;2024-02-21T18:05:53;4.50;;;2.37;;
15673;SDS011;7937;48.090;16.212;2024-02-21T18:08:56;5.93;;;2.23;;
15673;SDS011;7937;48.090;16.212;2024-02-21T18:12:00;4.60;;;1.30;;
15673;SDS011;7937;48.090;16.212;2024-02-21T18:15:02;6.73;;;1.73;;
15673;SDS011;7937;48.090;16.212;2024-02-21T18:18:05;8.70;;;1.70;;
15673;SDS011;7937;48.090;16.212;2024-02-21T18:21:07;4.30;;;1.30;;
15673;SDS011;7937;48.090;16.212;2024-02-21T18:24:09;2.90;;;1.30;;
15673;SDS011;7937;48.090;16.212;2024-02-21T18:27:11;3.77;;;1.50;;
15673;SDS011;7937;48.090;16.212;2024-02-21T18:30:14;5.33;;;1.50;;